Time;durP1;ratioP1;P1;durP2;ratioP2;P2;SDS_P1;SDS_P2;PMS_P1;PMS_P2;Temp;Humidity;BMP_temperature;BMP_pressure;BME280_temperature;BME280_humidity;BME280_pressure;Samples;Min_cycle;Max_cycle;Signal;HPM_P1;HPM_P2
2022/08/04 00:00:07;;;;;;;4.30;3.90;;;24.90;88.10;;;;;;5055812;28;20386;-70
2022/08/04 00:03:14;;;;;;;3.40;3.03;;;24.80;88.50;;;;;;5038935;28;20490;-72
2022/08/04 00:06:09;;;;;;;3.50;3.20;;;24.80;88.00;;;;;;5033969;28;20412;-71
2022/08/04 00:08:48;;;;;;;4.80;3.93;;;24.80;88.40;;;;;;5034426;28;20396;-72
2022/08/04 00:11:19;;;;;;;6.70;4.70;;;24.70;89.60;;;;;;5034323;28;20428;-72
2022/08/04 00:13:56;;;;;;;6.50;5.83;;;24.70;90.40;;;;;;5034127;28;20857;-73
2022/08/04 00:16:23;;;;;;;4.13;3.70;;;24.60;90.70;;;;;;5033711;28;20414;-72
2022/08/04 00:18:55;;;;;;;5.53;4.87;;;24.60;90.80;;;;;;5034109;28;20398;-73
2022/08/04 00:21:24;;;;;;;5.00;4.07;;;24.60;90.80;;;;;;5034079;28;20406;-73
2022/08/04 00:23:53;;;;;;;6.03;4.00;;;24.50;90.70;;;;;;5033968;28;20408;-72
2022/08/04 00:26:19;;;;;;;4.10;3.70;;;24.50;90.70;;;;;;5033517;28;20513;-72
2022/08/04 00:28:46;;;;;;;3.87;3.33;;;24.50;90.90;;;;;;5033722;28;20428;-73
2022/08/04 00:31:14;;;;;;;5.50;3.50;;;24.50;90.90;;;;;;5054379;28;20826;-72
2022/08/04 00:33:44;;;;;;;4.50;4.10;;;24.40;91.00;;;;;;5056945;28;20763;-72
2022/08/04 00:36:13;;;;;;;3.80;3.47;;;24.40;90.90;;;;;;5053085;28;20428;-73
2022/08/04 00:38:43;;;;;;;6.53;4.17;;;24.50;90.80;;;;;;5053710;28;20406;-72
2022/08/04 00:41:37;;;;;;;3.40;3.10;;;24.40;91.10;;;;;;5053350;28;20422;-71
2022/08/04 00:44:46;;;;;;;4.90;3.90;;;24.40;90.90;;;;;;5053392;28;20410;-72
2022/08/04 00:47:32;;;;;;;5.07;3.30;;;24.50;90.90;;;;;;5052856;28;20424;-72
2022/08/04 00:50:41;;;;;;;3.93;3.63;;;24.50;90.70;;;;;;5053081;28;20402;-72
2022/08/04 00:53:13;;;;;;;6.10;4.30;;;24.40;91.70;;;;;;4987612;28;20558;-71
2022/08/04 00:56:01;;;;;;;4.60;3.70;;;24.30;91.80;;;;;;5055815;28;20785;-71
2022/08/04 00:58:57;;;;;;;5.07;3.97;;;24.30;91.20;;;;;;5052920;28;20398;-72
2022/08/04 01:01:51;;;;;;;4.33;3.93;;;24.20;91.80;;;;;;5052686;28;20417;-72
2022/08/04 01:04:37;;;;;;;6.23;4.03;;;24.20;92.30;;;;;;5052583;28;20409;-72
2022/08/04 01:07:41;;;;;;;5.47;4.90;;;24.10;92.10;;;;;;5052710;28;20452;-72
2022/08/04 01:10:20;;;;;;;4.17;3.83;;;24.10;92.30;;;;;;5043655;28;20451;-72
2022/08/04 01:13:03;;;;;;;5.07;3.60;;;24.10;92.00;;;;;;5052806;28;20408;-72
2022/08/04 01:15:50;;;;;;;4.30;4.00;;;24.00;92.10;;;;;;5052423;28;20536;-72
2022/08/04 01:18:41;;;;;;;6.10;4.40;;;24.00;92.70;;;;;;5051860;28;21294;-72
2022/08/04 01:21:40;;;;;;;5.70;4.43;;;24.00;93.10;;;;;;5057005;28;20431;-73
2022/08/04 01:25:00;;;;;;;4.20;3.70;;;23.90;93.20;;;;;;5056838;28;20760;-73
2022/08/04 01:27:42;;;;;;;4.53;3.67;;;23.80;93.30;;;;;;5022200;28;20444;-72
2022/08/04 01:30:08;;;;;;;4.27;3.87;;;23.80;93.50;;;;;;5054169;28;20772;-72
2022/08/04 01:32:37;;;;;;;4.50;3.43;;;23.80;93.60;;;;;;5065483;28;20408;-72
2022/08/04 01:35:24;;;;;;;4.20;3.80;;;23.80;93.40;;;;;;5051959;28;20214;-72
2022/08/04 01:38:01;;;;;;;4.00;3.57;;;23.80;93.20;;;;;;5039637;28;20437;-72
2022/08/04 01:40:27;;;;;;;4.00;3.57;;;23.70;93.50;;;;;;5050890;28;20507;-72
2022/08/04 01:42:54;;;;;;;4.23;3.83;;;23.70;93.50;;;;;;5052218;28;20439;-73
2022/08/04 01:45:23;;;;;;;3.87;3.30;;;23.70;93.40;;;;;;5051846;28;20174;-72
2022/08/04 01:47:52;;;;;;;4.30;3.50;;;23.70;93.30;;;;;;5050747;28;20439;-72
2022/08/04 01:50:19;;;;;;;3.43;2.87;;;23.80;93.40;;;;;;5052085;28;20403;-71
2022/08/04 01:52:45;;;;;;;3.70;3.40;;;23.80;93.60;;;;;;5050632;28;20493;-71
2022/08/04 01:55:13;;;;;;;3.97;3.67;;;23.70;94.00;;;;;;5051377;28;20455;-72
2022/08/04 01:57:46;;;;;;;3.53;3.23;;;23.70;94.00;;;;;;5051904;28;20423;-72
2022/08/04 02:00:14;;;;;;;3.77;3.47;;;23.70;93.90;;;;;;5051375;28;20398;-72
2022/08/04 02:02:40;;;;;;;4.00;3.60;;;23.70;93.90;;;;;;5051845;28;20408;-73
2022/08/04 02:05:10;;;;;;;3.87;3.47;;;23.60;94.00;;;;;;5051598;28;20431;-72
2022/08/04 02:07:54;;;;;;;3.50;2.87;;;23.60;94.10;;;;;;5054871;28;20501;-74
2022/08/04 02:10:40;;;;;;;4.60;4.20;;;23.60;94.30;;;;;;5055573;28;20531;-74
2022/08/04 02:13:06;;;;;;;3.90;3.60;;;23.50;94.90;;;;;;5056629;28;20454;-73
2022/08/04 02:16:07;;;;;;;3.80;3.50;;;23.50;95.00;;;;;;5054709;28;20462;-73
2022/08/04 02:19:03;;;;;;;4.17;3.87;;;23.50;95.10;;;;;;5042784;28;20207;-74
2022/08/04 02:21:31;;;;;;;4.93;3.20;;;23.40;94.90;;;;;;5044636;28;20408;-74
2022/08/04 02:24:04;;;;;;;3.90;3.50;;;23.40;94.90;;;;;;5055546;28;20763;-74
2022/08/04 02:26:32;;;;;;;4.23;3.50;;;23.40;95.20;;;;;;5054537;28;20432;-74
2022/08/04 02:29:16;;;;;;;4.50;4.07;;;23.40;95.20;;;;;;5054567;28;20415;-74
2022/08/04 02:31:51;;;;;;;6.57;3.57;;;23.30;95.30;;;;;;5055580;28;20437;-73
2022/08/04 02:34:41;;;;;;;4.00;3.70;;;23.40;95.10;;;;;;5056163;28;20438;-73
2022/08/04 02:37:08;;;;;;;4.77;4.33;;;23.30;95.10;;;;;;5057075;28;20512;-73
2022/08/04 02:39:36;;;;;;;6.00;3.47;;;23.40;95.00;;;;;;5060616;28;20482;-73
2022/08/04 02:42:03;;;;;;;4.40;3.50;;;23.40;95.00;;;;;;5061311;28;20775;-73
2022/08/04 02:44:30;;;;;;;4.47;3.87;;;23.40;95.10;;;;;;5055635;28;20405;-72
2022/08/04 02:46:58;;;;;;;3.70;3.40;;;23.40;95.20;;;;;;5052343;28;20436;-73
2022/08/04 02:49:27;;;;;;;3.30;3.03;;;23.30;95.30;;;;;;5055422;28;20919;-73
2022/08/04 02:51:55;;;;;;;3.57;3.27;;;23.30;95.40;;;;;;5054834;28;20412;-72
2022/08/04 02:54:37;;;;;;;3.90;3.60;;;23.30;95.60;;;;;;5055435;28;20518;-73
2022/08/04 02:57:07;;;;;;;4.30;3.47;;;23.20;95.70;;;;;;5059184;28;20438;-73
2022/08/04 02:59:48;;;;;;;3.53;3.23;;;23.20;95.90;;;;;;5058748;28;20412;-73
2022/08/04 03:02:15;;;;;;;3.93;3.63;;;23.20;96.10;;;;;;5056843;28;20827;-73
2022/08/04 03:04:59;;;;;;;7.00;3.40;;;23.20;96.00;;;;;;5055943;28;20425;-73
2022/08/04 03:07:56;;;;;;;4.47;4.07;;;23.10;96.20;;;;;;5056388;28;20446;-74
2022/08/04 03:10:39;;;;;;;4.00;3.57;;;23.00;96.50;;;;;;5047988;28;20428;-74
2022/08/04 03:13:35;;;;;;;4.37;4.07;;;23.00;96.50;;;;;;5037742;28;20819;-73
2022/08/04 03:16:20;;;;;;;4.57;3.63;;;23.00;96.70;;;;;;5039380;28;20820;-74
2022/08/04 03:19:04;;;;;;;5.47;3.50;;;22.90;97.20;;;;;;5047310;28;21068;-74
2022/08/04 03:21:32;;;;;;;3.97;3.57;;;22.80;97.40;;;;;;5067335;28;20469;-73
2022/08/04 03:24:45;;;;;;;5.83;3.53;;;22.70;97.80;;;;;;5066677;28;20407;-73
2022/08/04 03:27:21;;;;;;;3.70;3.40;;;22.70;98.00;;;;;;5065671;28;20489;-74
2022/08/04 03:30:14;;;;;;;4.47;4.07;;;22.70;98.10;;;;;;5066830;28;20411;-74
2022/08/04 03:33:20;;;;;;;3.97;3.67;;;22.70;98.30;;;;;;5065727;28;20418;-73
2022/08/04 03:36:14;;;;;;;4.40;3.40;;;22.70;98.40;;;;;;5060380;28;20493;-74
2022/08/04 03:39:07;;;;;;;3.87;3.57;;;22.70;98.60;;;;;;5033659;28;20428;-73
2022/08/04 03:42:04;;;;;;;4.27;3.90;;;22.70;98.70;;;;;;5059571;28;20407;-73
2022/08/04 03:44:47;;;;;;;3.67;3.37;;;22.60;98.80;;;;;;5060471;28;20405;-73
2022/08/04 03:47:50;;;;;;;3.60;3.30;;;22.60;99.20;;;;;;5068013;28;20448;-73
2022/08/04 03:54:05;;;;;;;4.00;3.70;;;22.60;99.40;;;;;;5061628;28;20418;-73
2022/08/04 03:57:01;;;;;;;3.60;3.30;;;22.70;99.40;;;;;;5062239;28;20427;-73
2022/08/04 03:59:50;;;;;;;4.40;4.10;;;22.70;99.50;;;;;;5061626;28;20760;-74
2022/08/04 04:02:50;;;;;;;4.03;3.53;;;22.70;99.50;;;;;;5062238;28;20406;-73
2022/08/04 04:05:37;;;;;;;4.83;4.40;;;22.70;99.60;;;;;;5062698;28;20404;-74
2022/08/04 04:08:10;;;;;;;3.60;3.30;;;22.70;99.60;;;;;;5062644;28;20430;-74
2022/08/04 04:11:02;;;;;;;3.60;3.30;;;22.70;99.80;;;;;;5059086;28;20424;-74
2022/08/04 04:13:56;;;;;;;3.97;3.57;;;22.70;99.90;;;;;;5058572;28;20928;-73
2022/08/04 04:16:36;;;;;;;4.87;4.30;;;22.70;99.90;;;;;;5060816;28;20434;-74
2022/08/04 04:19:11;;;;;;;4.70;4.10;;;22.70;99.90;;;;;;5061848;28;20405;-74
2022/08/04 04:21:55;;;;;;;4.50;4.10;;;22.80;99.90;;;;;;5054848;28;20418;-74
2022/08/04 04:24:45;;;;;;;4.47;4.07;;;22.70;99.90;;;;;;5065526;28;20403;-73
2022/08/04 04:27:35;;;;;;;5.17;4.63;;;22.80;99.90;;;;;;5068257;28;20422;-72
2022/08/04 04:30:17;;;;;;;4.83;4.43;;;22.80;99.90;;;;;;5065813;28;20410;-73
2022/08/04 04:32:55;;;;;;;4.67;4.30;;;22.80;99.90;;;;;;5057964;28;20467;-74
2022/08/04 04:35:33;;;;;;;4.60;4.07;;;22.80;99.90;;;;;;5056242;28;20442;-71
2022/08/04 04:38:28;;;;;;;4.43;4.03;;;22.80;99.90;;;;;;5036781;28;20412;-73
2022/08/04 04:41:11;;;;;;;4.47;4.10;;;22.80;99.90;;;;;;5045035;28;20471;-74
2022/08/04 04:43:44;;;;;;;4.43;4.13;;;22.90;99.90;;;;;;5056966;28;20421;-74
2022/08/04 04:46:30;;;;;;;4.87;4.47;;;22.90;99.90;;;;;;5056180;28;20993;-73
2022/08/04 04:49:14;;;;;;;5.30;4.80;;;23.00;99.90;;;;;;5054908;28;20924;-74
2022/08/04 04:51:59;;;;;;;4.37;3.97;;;23.00;99.90;;;;;;5057203;28;20410;-73
2022/08/04 04:54:44;;;;;;;4.93;4.43;;;23.10;99.90;;;;;;5040219;28;21062;-74
2022/08/04 04:57:16;;;;;;;7.17;4.50;;;23.00;99.90;;;;;;5058399;28;20426;-74
2022/08/04 04:59:50;;;;;;;5.97;5.37;;;23.00;99.90;;;;;;5058420;28;20403;-75
2022/08/04 05:02:42;;;;;;;6.93;4.80;;;23.10;99.90;;;;;;5058655;28;20401;-74
2022/08/04 05:05:25;;;;;;;5.20;4.70;;;23.20;99.90;;;;;;5060546;28;20489;-75
2022/08/04 05:07:54;;;;;;;5.83;5.27;;;23.20;99.90;;;;;;5061470;28;20455;-73
2022/08/04 05:10:39;;;;;;;4.87;4.47;;;23.30;99.90;;;;;;5061772;28;20415;-74
2022/08/04 05:13:17;;;;;;;5.47;4.47;;;23.40;99.90;;;;;;5060595;28;20413;-74
2022/08/04 05:15:47;;;;;;;5.23;4.73;;;23.40;99.90;;;;;;5055865;28;20466;-74
2022/08/04 05:18:20;;;;;;;4.53;4.20;;;23.50;99.90;;;;;;5056125;28;20776;-74
2022/08/04 05:20:52;;;;;;;5.83;4.13;;;24.00;99.90;;;;;;5055544;28;20423;-75
2022/08/04 05:23:23;;;;;;;5.00;4.60;;;24.30;99.90;;;;;;5055904;28;20419;-75
2022/08/04 05:25:58;;;;;;;11.20;8.37;;;24.70;99.40;;;;;;5053818;28;20430;-75
2022/08/04 05:28:33;;;;;;;5.27;4.80;;;25.10;99.50;;;;;;5055485;28;20471;-73
2022/08/04 05:31:09;;;;;;;5.57;5.07;;;25.50;98.30;;;;;;5056469;28;20408;-75
2022/08/04 05:34:06;;;;;;;5.77;5.27;;;25.60;97.80;;;;;;5056248;28;20413;-75
2022/08/04 05:36:56;;;;;;;6.90;6.30;;;25.70;98.00;;;;;;5053912;28;20441;-74
2022/08/04 05:39:25;;;;;;;12.13;9.23;;;26.40;96.20;;;;;;5058035;28;20428;-75
2022/08/04 05:41:51;;;;;;;5.03;4.53;;;26.90;95.90;;;;;;5056472;28;20508;-75
2022/08/04 05:44:20;;;;;;;4.43;4.13;;;27.40;94.50;;;;;;5056175;28;20425;-74
2022/08/04 05:46:49;;;;;;;4.43;4.03;;;27.50;94.00;;;;;;5054893;28;20842;-75
2022/08/04 05:49:16;;;;;;;6.30;4.00;;;27.40;94.20;;;;;;5048259;28;20405;-74
2022/08/04 05:51:43;;;;;;;5.97;4.37;;;27.80;93.70;;;;;;5056592;28;20405;-74
2022/08/04 05:54:10;;;;;;;4.60;4.20;;;27.90;93.00;;;;;;5056457;28;20488;-74
2022/08/04 05:56:37;;;;;;;5.13;4.73;;;28.20;92.30;;;;;;5055711;28;20515;-75
2022/08/04 05:59:04;;;;;;;5.30;4.90;;;28.20;92.30;;;;;;5055805;28;20398;-74
2022/08/04 06:01:31;;;;;;;4.40;4.00;;;28.50;91.70;;;;;;5055989;28;20413;-75
2022/08/04 06:04:00;;;;;;;4.80;4.33;;;28.70;91.00;;;;;;5055864;28;20883;-74
2022/08/04 06:06:28;;;;;;;4.50;4.10;;;28.80;91.20;;;;;;5055395;28;20449;-74
2022/08/04 06:08:54;;;;;;;8.43;4.30;;;29.00;90.90;;;;;;5055302;28;20456;-74
2022/08/04 06:11:21;;;;;;;5.10;4.60;;;29.20;90.00;;;;;;5052537;28;20425;-74
2022/08/04 06:13:56;;;;;;;5.20;4.43;;;29.00;89.30;;;;;;5054486;28;20471;-74
2022/08/04 06:16:23;;;;;;;5.43;4.47;;;29.40;89.30;;;;;;5059608;28;20451;-75
2022/08/04 06:18:52;;;;;;;9.87;4.40;;;30.20;87.80;;;;;;5052291;28;20425;-75
2022/08/04 06:21:25;;;;;;;5.70;4.40;;;29.80;86.60;;;;;;5056010;28;20409;-75
2022/08/04 06:23:54;;;;;;;6.47;4.77;;;29.50;87.10;;;;;;5056456;28;20402;-75
2022/08/04 06:26:20;;;;;;;4.50;3.70;;;29.50;87.50;;;;;;5058434;28;20426;-74
2022/08/04 06:28:48;;;;;;;5.33;4.17;;;30.10;86.60;;;;;;5053628;28;20416;-75
2022/08/04 06:31:30;;;;;;;5.50;4.40;;;30.30;85.60;;;;;;5058407;28;20398;-75
2022/08/04 06:34:01;;;;;;;6.13;4.10;;;30.10;84.40;;;;;;5061321;28;20449;-75
2022/08/04 06:36:28;;;;;;;5.40;4.27;;;30.50;84.10;;;;;;5060492;28;20425;-74
2022/08/04 06:38:55;;;;;;;4.37;4.03;;;30.40;83.80;;;;;;5058645;28;20433;-77
2022/08/04 06:41:22;;;;;;;4.50;4.20;;;30.90;82.70;;;;;;5055836;28;20431;-74
2022/08/04 06:43:49;;;;;;;4.40;4.00;;;31.00;82.50;;;;;;5056690;28;21140;-74
2022/08/04 06:46:15;;;;;;;5.50;4.53;;;31.20;81.20;;;;;;5056850;28;20923;-74
2022/08/04 06:48:42;;;;;;;5.30;4.80;;;31.30;80.60;;;;;;5059801;28;20429;-76
2022/08/04 06:51:10;;;;;;;4.50;3.57;;;31.30;80.10;;;;;;5055810;28;20398;-75
2022/08/04 06:53:35;;;;;;;4.20;3.90;;;31.60;80.50;;;;;;5047831;28;20821;-74
2022/08/04 06:56:01;;;;;;;6.03;4.57;;;31.90;78.80;;;;;;5035442;28;20458;-75
2022/08/04 06:58:31;;;;;;;6.73;4.27;;;31.70;79.20;;;;;;5047771;28;20182;-75
2022/08/04 07:01:00;;;;;;;4.33;4.03;;;32.10;79.00;;;;;;5055056;28;20567;-75
2022/08/04 07:03:27;;;;;;;4.20;3.80;;;32.10;78.60;;;;;;5054658;28;20500;-75
2022/08/04 07:05:53;;;;;;;4.33;3.77;;;32.20;77.00;;;;;;5055452;28;20460;-74
2022/08/04 07:08:20;;;;;;;7.27;5.77;;;32.70;78.80;;;;;;5055581;28;20454;-75
2022/08/04 07:10:46;;;;;;;5.63;4.07;;;32.60;78.30;;;;;;5055629;28;20455;-74
2022/08/04 07:13:13;;;;;;;5.43;4.20;;;32.80;75.00;;;;;;5055166;28;20417;-75
2022/08/04 07:15:42;;;;;;;4.63;3.47;;;32.70;73.40;;;;;;5055407;28;20463;-74
2022/08/04 07:18:07;;;;;;;9.90;4.30;;;32.70;75.20;;;;;;5055313;28;20427;-73
2022/08/04 07:20:33;;;;;;;4.80;3.77;;;32.80;73.70;;;;;;5055134;28;20408;-74
2022/08/04 07:23:00;;;;;;;4.37;4.03;;;33.90;71.70;;;;;;5055709;28;20613;-74
2022/08/04 07:25:26;;;;;;;5.80;4.30;;;32.90;72.30;;;;;;5055333;28;20546;-75
2022/08/04 07:27:52;;;;;;;10.90;5.40;;;34.10;68.80;;;;;;5060923;28;20817;-75
2022/08/04 07:30:18;;;;;;;5.47;3.97;;;34.10;70.80;;;;;;5063575;28;20421;-74
2022/08/04 07:32:45;;;;;;;4.20;3.90;;;34.10;68.60;;;;;;5064558;28;20179;-74
2022/08/04 07:35:12;;;;;;;3.50;3.30;;;33.90;71.00;;;;;;5063654;28;20456;-75
2022/08/04 07:37:37;;;;;;;3.10;2.90;;;35.00;65.90;;;;;;5055618;28;20432;-75
2022/08/04 07:40:04;;;;;;;4.20;3.80;;;34.70;67.90;;;;;;5055428;28;20412;-75
2022/08/04 07:42:29;;;;;;;4.17;3.80;;;34.20;71.80;;;;;;5055200;28;20167;-75
2022/08/04 07:44:55;;;;;;;6.37;5.83;;;34.10;68.00;;;;;;5055759;28;20413;-75
2022/08/04 07:47:21;;;;;;;3.37;2.80;;;33.90;71.10;;;;;;5056666;28;20221;-74
2022/08/04 07:49:47;;;;;;;3.90;3.40;;;34.40;66.70;;;;;;5054734;28;20170;-75
2022/08/04 07:52:13;;;;;;;8.23;3.60;;;34.40;67.20;;;;;;5053511;28;20582;-75
2022/08/04 07:54:40;;;;;;;3.83;3.40;;;34.40;67.60;;;;;;5054419;28;20197;-74
2022/08/04 07:57:06;;;;;;;4.20;3.80;;;34.10;66.00;;;;;;5054432;28;20680;-74
2022/08/04 07:59:33;;;;;;;3.93;3.20;;;34.40;66.50;;;;;;5053722;28;20414;-75
2022/08/04 08:02:00;;;;;;;3.70;3.30;;;34.80;65.30;;;;;;5056863;28;20401;-75
2022/08/04 08:04:27;;;;;;;3.23;3.00;;;34.70;63.50;;;;;;5063181;28;20416;-75
2022/08/04 08:09:20;;;;;;;3.07;2.77;;;36.30;59.30;;;;;;5053163;22;20494;-64
2022/08/04 08:11:48;;;;;;;3.30;3.00;;;35.90;60.10;;;;;;5033126;28;20167;-64
2022/08/04 08:14:15;;;;;;;4.10;3.10;;;36.00;61.80;;;;;;5033296;28;20485;-64
2022/08/04 08:16:41;;;;;;;2.90;2.70;;;35.70;63.20;;;;;;5033067;28;20405;-64
2022/08/04 08:19:07;;;;;;;3.20;2.90;;;35.40;65.20;;;;;;5032948;28;20935;-64
2022/08/04 08:21:34;;;;;;;3.60;3.30;;;35.90;59.60;;;;;;5033393;28;20425;-64
2022/08/04 08:24:00;;;;;;;4.40;3.27;;;35.50;61.00;;;;;;5033199;28;20442;-64
2022/08/04 08:26:26;;;;;;;4.70;3.20;;;36.90;57.90;;;;;;5032921;28;20815;-64
2022/08/04 08:28:52;;;;;;;3.10;2.90;;;37.50;58.70;;;;;;5033323;28;20229;-64
2022/08/04 08:31:18;;;;;;;3.23;2.93;;;38.00;55.90;;;;;;5033213;28;20402;-64
2022/08/04 08:33:45;;;;;;;3.90;3.60;;;37.20;56.10;;;;;;5032968;28;20460;-64
2022/08/04 08:36:28;;;;;;;3.70;3.40;;;36.90;56.80;;;;;;5032870;28;20586;-64
2022/08/04 08:39:08;;;;;;;3.13;2.83;;;36.30;58.30;;;;;;5032835;28;20488;-64
2022/08/04 08:42:01;;;;;;;2.97;2.77;;;36.40;57.00;;;;;;5032887;28;20399;-64
2022/08/04 08:44:48;;;;;;;3.37;3.07;;;36.00;57.70;;;;;;5033013;28;20402;-64
2022/08/04 08:47:45;;;;;;;2.40;2.20;;;36.60;57.00;;;;;;5033098;28;20519;-64
2022/08/04 08:50:44;;;;;;;2.57;2.37;;;38.00;55.00;;;;;;5032793;28;20403;-64
2022/08/04 08:53:51;;;;;;;3.00;2.80;;;38.40;53.50;;;;;;5032502;28;20406;-64
2022/08/04 08:57:07;;;;;;;2.57;2.37;;;37.60;54.60;;;;;;5031655;28;20422;-64
2022/08/04 09:00:08;;;;;;;3.30;2.57;;;37.00;54.60;;;;;;5023942;28;20418;-64
2022/08/04 09:03:07;;;;;;;3.07;2.40;;;37.30;54.90;;;;;;5032473;28;20497;-64
2022/08/04 09:05:50;;;;;;;2.70;2.50;;;37.10;55.40;;;;;;5032165;28;20500;-64
2022/08/04 09:08:37;;;;;;;2.73;2.20;;;36.90;54.80;;;;;;5032397;28;21099;-64
2022/08/04 09:11:12;;;;;;;2.87;2.47;;;37.30;54.20;;;;;;5032392;28;20476;-64
2022/08/04 09:13:49;;;;;;;3.60;2.70;;;37.50;53.20;;;;;;5032362;28;20421;-64
2022/08/04 09:16:33;;;;;;;2.80;2.60;;;37.70;52.70;;;;;;5032037;28;20410;-64
2022/08/04 09:19:12;;;;;;;3.30;3.00;;;37.00;53.50;;;;;;5031756;28;20483;-64
2022/08/04 09:21:52;;;;;;;4.30;2.60;;;37.00;54.50;;;;;;5031928;28;20456;-64
2022/08/04 09:24:30;;;;;;;3.97;3.10;;;37.80;53.40;;;;;;5032125;28;20497;-64
2022/08/04 09:27:18;;;;;;;3.13;2.87;;;37.30;53.30;;;;;;5033377;28;20464;-64
2022/08/04 09:30:08;;;;;;;2.80;2.60;;;37.00;53.70;;;;;;5032076;28;20394;-64
2022/08/04 09:32:40;;;;;;;5.23;2.83;;;37.50;52.80;;;;;;5031768;28;20509;-64
2022/08/04 09:35:27;;;;;;;5.20;2.40;;;37.70;52.10;;;;;;5031232;28;20895;-64
2022/08/04 09:38:15;;;;;;;2.93;2.73;;;37.10;53.70;;;;;;5031512;28;20421;-64
2022/08/04 09:40:47;;;;;;;2.60;2.40;;;36.60;53.80;;;;;;5031774;28;20405;-64
2022/08/04 09:43:36;;;;;;;2.43;2.23;;;37.60;52.10;;;;;;5031698;28;20505;-64
2022/08/04 09:46:12;;;;;;;4.40;4.07;;;37.80;51.90;;;;;;5031297;28;20520;-64
2022/08/04 09:48:58;;;;;;;2.93;2.73;;;36.50;53.90;;;;;;5031422;28;20492;-64
2022/08/04 09:51:52;;;;;;;5.63;2.70;;;37.20;52.30;;;;;;5031515;28;20406;-64
2022/08/04 09:54:42;;;;;;;2.53;2.33;;;37.00;53.00;;;;;;5031251;28;20450;-65
2022/08/04 09:57:44;;;;;;;3.63;2.83;;;37.80;52.10;;;;;;5031317;28;20410;-65
2022/08/04 10:00:15;;;;;;;3.07;2.87;;;37.60;53.10;;;;;;5031397;28;20930;-65
2022/08/04 10:02:49;;;;;;;5.93;2.87;;;37.30;54.00;;;;;;5031362;28;20407;-65
2022/08/04 10:05:20;;;;;;;3.50;3.03;;;37.20;53.60;;;;;;5030832;28;20397;-64
2022/08/04 10:08:08;;;;;;;3.07;2.87;;;37.60;52.70;;;;;;5031235;28;20441;-64
2022/08/04 10:10:59;;;;;;;4.13;3.80;;;37.40;52.60;;;;;;5031407;28;20429;-64
2022/08/04 10:13:43;;;;;;;3.20;3.00;;;36.40;55.20;;;;;;5031219;28;20422;-65
2022/08/04 10:16:31;;;;;;;3.57;2.63;;;36.20;54.80;;;;;;5030970;28;20413;-64
2022/08/04 10:19:00;;;;;;;2.23;2.13;;;35.90;54.10;;;;;;5031174;28;20418;-64
2022/08/04 10:21:38;;;;;;;3.50;3.20;;;35.70;53.80;;;;;;5031737;28;20398;-64
2022/08/04 10:24:28;;;;;;;2.90;2.70;;;35.70;54.60;;;;;;5032103;28;20426;-64
2022/08/04 10:27:00;;;;;;;3.00;2.80;;;35.50;54.10;;;;;;5031430;28;20409;-64
2022/08/04 10:29:35;;;;;;;2.87;2.67;;;35.20;55.00;;;;;;5031842;28;20981;-64
2022/08/04 10:32:25;;;;;;;2.53;2.40;;;35.20;54.60;;;;;;5031755;28;20394;-64
2022/08/04 10:35:17;;;;;;;3.37;3.07;;;35.20;54.30;;;;;;5027698;28;20453;-64
2022/08/04 10:38:08;;;;;;;2.97;2.77;;;35.30;55.10;;;;;;5031670;28;20458;-64
2022/08/04 10:40:43;;;;;;;2.83;2.63;;;35.60;54.40;;;;;;5032097;28;20406;-64
2022/08/04 10:43:32;;;;;;;2.03;1.93;;;35.30;53.30;;;;;;5031896;28;20406;-64
2022/08/04 10:46:12;;;;;;;2.17;1.97;;;35.10;53.80;;;;;;5023446;28;20414;-64
2022/08/04 10:49:07;;;;;;;2.07;1.97;;;35.00;53.90;;;;;;5031076;28;20509;-64
2022/08/04 10:52:00;;;;;;;2.93;2.73;;;34.80;53.40;;;;;;5031819;28;20426;-64
2022/08/04 10:54:46;;;;;;;2.50;2.30;;;35.10;53.80;;;;;;5031618;28;20445;-64
2022/08/04 10:57:46;;;;;;;2.83;2.27;;;34.70;53.50;;;;;;5031679;28;20770;-64
2022/08/04 11:00:27;;;;;;;2.37;2.27;;;34.80;53.70;;;;;;5026908;28;20789;-64
2022/08/04 11:03:05;;;;;;;2.80;2.60;;;34.90;53.40;;;;;;5031623;28;20757;-64
2022/08/04 11:05:56;;;;;;;2.67;2.47;;;34.90;54.40;;;;;;5031069;28;20418;-64
2022/08/04 11:08:32;;;;;;;3.00;2.20;;;34.90;54.30;;;;;;5030917;28;20769;-63
2022/08/04 11:11:09;;;;;;;4.43;2.67;;;35.20;54.00;;;;;;5031402;28;20439;-64
2022/08/04 11:13:44;;;;;;;2.70;2.50;;;35.20;53.60;;;;;;5031209;28;20460;-64
2022/08/04 11:16:18;;;;;;;2.97;2.20;;;35.20;53.60;;;;;;5031115;28;20912;-64
2022/08/04 11:18:43;;;;;;;2.60;2.40;;;35.00;54.10;;;;;;5030794;28;20442;-64
2022/08/04 11:21:11;;;;;;;2.50;2.30;;;35.20;53.70;;;;;;5031302;28;20409;-64
2022/08/04 11:23:43;;;;;;;2.60;2.40;;;35.40;54.50;;;;;;5031073;28;20167;-63
2022/08/04 11:26:14;;;;;;;2.30;2.20;;;35.40;53.60;;;;;;5030887;28;20406;-64
2022/08/04 11:29:25;;;;;;;2.50;2.27;;;35.20;53.40;;;;;;5031458;28;20434;-63
2022/08/04 11:31:51;;;;;;;3.40;2.67;;;35.40;53.30;;;;;;5031160;28;20402;-64
2022/08/04 11:34:25;;;;;;;3.40;3.10;;;35.30;53.00;;;;;;5032723;28;20790;-64
2022/08/04 11:36:54;;;;;;;11.80;9.60;;;35.30;53.10;;;;;;5034903;28;20798;-64
2022/08/04 11:39:34;;;;;;;7.17;5.80;;;35.60;52.80;;;;;;5034742;28;20402;-63
2022/08/04 11:42:18;;;;;;;7.80;5.83;;;35.60;52.70;;;;;;5034776;28;20398;-63
2022/08/04 11:44:48;;;;;;;5.10;3.80;;;35.50;52.10;;;;;;5034520;28;20897;-63
2022/08/04 11:47:29;;;;;;;4.50;3.50;;;35.50;52.00;;;;;;5034438;28;20422;-63
2022/08/04 11:50:07;;;;;;;4.57;4.17;;;35.40;52.50;;;;;;5034605;28;20410;-62
2022/08/04 11:52:34;;;;;;;2.60;2.40;;;35.50;52.10;;;;;;5034655;28;20412;-63
2022/08/04 11:55:05;;;;;;;3.00;2.80;;;35.60;51.90;;;;;;5034368;28;20957;-65
2022/08/04 11:57:31;;;;;;;2.90;2.70;;;35.50;52.20;;;;;;5034417;28;20453;-64
2022/08/04 11:59:59;;;;;;;2.47;2.30;;;35.50;52.60;;;;;;5034745;28;20406;-65
2022/08/04 12:02:46;;;;;;;3.70;2.20;;;35.50;51.70;;;;;;5034295;28;20215;-64
2022/08/04 12:05:12;;;;;;;3.47;3.17;;;35.30;50.70;;;;;;5033952;28;20495;-64
2022/08/04 12:07:57;;;;;;;5.13;4.70;;;35.50;50.40;;;;;;5032798;28;20927;-64
2022/08/04 12:10:39;;;;;;;2.97;2.77;;;35.70;50.90;;;;;;5019724;28;20410;-64
2022/08/04 12:13:35;;;;;;;2.87;2.60;;;35.60;50.70;;;;;;5033985;28;20457;-64
2022/08/04 12:16:13;;;;;;;7.90;3.87;;;35.40;51.10;;;;;;5033048;28;20459;-64
2022/08/04 12:18:45;;;;;;;4.13;3.23;;;35.70;51.70;;;;;;5033090;28;20800;-65
2022/08/04 12:21:17;;;;;;;2.63;2.43;;;35.90;50.70;;;;;;5033990;28;20493;-64
2022/08/04 12:23:45;;;;;;;3.70;3.37;;;35.90;50.20;;;;;;5033830;28;20947;-64
2022/08/04 12:26:22;;;;;;;3.10;2.90;;;36.00;49.30;;;;;;5033401;28;20411;-64
2022/08/04 12:28:50;;;;;;;3.80;3.50;;;36.10;49.10;;;;;;5033694;28;20430;-64
2022/08/04 12:31:26;;;;;;;5.20;3.73;;;36.10;48.80;;;;;;5033750;28;20410;-64
2022/08/04 12:33:58;;;;;;;2.27;2.07;;;36.20;49.30;;;;;;5032308;28;20475;-64
2022/08/04 12:36:37;;;;;;;2.23;2.10;;;36.20;49.40;;;;;;5033223;28;20402;-64
2022/08/04 12:39:10;;;;;;;3.40;3.10;;;36.20;48.90;;;;;;5033461;28;20472;-66
2022/08/04 12:41:41;;;;;;;3.30;3.10;;;36.00;49.20;;;;;;5033996;28;20436;-64
2022/08/04 12:44:11;;;;;;;3.53;2.63;;;36.20;49.20;;;;;;5033154;28;20906;-64
2022/08/04 12:46:38;;;;;;;3.87;2.60;;;36.00;49.90;;;;;;5033063;28;20460;-63
2022/08/04 12:49:05;;;;;;;2.60;2.40;;;36.00;50.30;;;;;;5033085;28;20476;-64
2022/08/04 12:51:42;;;;;;;3.50;2.20;;;36.00;49.60;;;;;;5033187;28;20409;-64
2022/08/04 12:54:09;;;;;;;2.40;2.30;;;35.60;49.30;;;;;;5033171;28;20975;-63
2022/08/04 12:56:35;;;;;;;6.20;5.60;;;35.80;49.80;;;;;;5032964;28;20779;-64
2022/08/04 12:59:04;;;;;;;6.13;5.53;;;35.80;50.40;;;;;;5033210;28;20418;-64
2022/08/04 13:01:31;;;;;;;3.07;2.87;;;35.90;50.10;;;;;;5033245;28;20403;-64
2022/08/04 13:04:01;;;;;;;2.47;2.27;;;36.10;49.70;;;;;;5032983;28;20431;-64
2022/08/04 13:06:30;;;;;;;2.60;2.40;;;36.30;48.30;;;;;;5032869;28;20915;-64
2022/08/04 13:09:03;;;;;;;4.17;2.67;;;36.20;47.90;;;;;;5032966;28;20450;-64
2022/08/04 13:11:33;;;;;;;2.70;2.47;;;36.20;48.20;;;;;;5032947;28;20448;-64
2022/08/04 13:13:59;;;;;;;2.40;2.20;;;36.20;48.90;;;;;;5032893;28;20410;-64
2022/08/04 13:16:29;;;;;;;2.20;2.03;;;36.10;48.20;;;;;;5033508;28;20414;-64
2022/08/04 13:18:55;;;;;;;2.20;2.00;;;36.30;48.00;;;;;;5031112;28;20434;-64
2022/08/04 13:21:22;;;;;;;2.80;2.03;;;36.30;48.10;;;;;;5032892;28;20413;-64
2022/08/04 13:23:54;;;;;;;4.50;4.10;;;36.10;47.80;;;;;;5032982;28;20410;-64
2022/08/04 13:26:20;;;;;;;15.70;14.00;;;36.10;48.40;;;;;;5032573;28;20807;-64
2022/08/04 13:28:48;;;;;;;3.37;3.03;;;36.20;48.00;;;;;;5032622;28;20426;-64
2022/08/04 13:31:20;;;;;;;5.07;4.60;;;36.00;47.70;;;;;;5032524;28;20398;-64
2022/08/04 13:33:49;;;;;;;4.33;3.97;;;36.00;47.20;;;;;;5032717;28;20410;-64
2022/08/04 13:36:17;;;;;;;8.00;7.20;;;36.10;48.10;;;;;;5032045;28;20414;-64
2022/08/04 13:38:51;;;;;;;3.80;3.50;;;36.00;47.70;;;;;;5032615;28;20454;-64
2022/08/04 13:41:19;;;;;;;3.47;2.43;;;35.90;47.60;;;;;;5032499;28;20398;-65